N1615A PKWA-PKMJ
Flight info
| Callsign | N1615A |
|---|---|
| Flight time | 0h 40m |
| Altitude | 35000 |
| Route | CURCH WOZTI |
| Aircraft | CL60/M-SBDE1E2E3FGHIJ4J5J7M3RWXYZ/LB1V1D1 |
Departure
| Time | 2026-04-24 03:42 |
|---|---|
| Airport | Bucholz Army Air Field (PKWA) |
Arrival
| Time | 2026-04-24 04:23 |
|---|---|
| Airport | Marshall Islands International Airport (PKMJ) |
| Time | Latitude | Longitude | Altitude | Speed | Heading |
|---|---|---|---|---|---|
| 2026-04-24 03:36 | 8.72578 | 167.73981 | 45 ft | 0 kts | 252° |
| 2026-04-24 03:39 | 8.72578 | 167.73979 | 45 ft | 0 kts | 252° |
| 2026-04-24 03:40 | 8.72566 | 167.73947 | 45 ft | 15 kts | 237° |
| 2026-04-24 03:40 | 8.72475 | 167.73936 | 36 ft | 16 kts | 163° |
| 2026-04-24 03:40 | 8.72380 | 167.73962 | 31 ft | 2 kts | 164° |
| 2026-04-24 03:40 | 8.72379 | 167.73962 | 31 ft | 0 kts | 163° |
| 2026-04-24 03:41 | 8.72373 | 167.73965 | 31 ft | 6 kts | 162° |
| 2026-04-24 03:41 | 8.72356 | 167.73970 | 30 ft | 8 kts | 162° |
| 2026-04-24 03:41 | 8.72334 | 167.73978 | 29 ft | 9 kts | 161° |
| 2026-04-24 03:41 | 8.72265 | 167.73975 | 27 ft | 0 kts | 216° |
| 2026-04-24 03:42 | 8.72245 | 167.73936 | 27 ft | 37 kts | 248° |
| 2026-04-24 03:42 | 8.72051 | 167.73299 | 13 ft | 144 kts | 255° |
| 2026-04-24 03:42 | 8.71636 | 167.72142 | 333 ft | 195 kts | 248° |
| 2026-04-24 03:42 | 8.71124 | 167.70851 | 1374 ft | 206 kts | 249° |
| 2026-04-24 03:43 | 8.70445 | 167.69609 | 2536 ft | 207 kts | 223° |
| 2026-04-24 03:43 | 8.69221 | 167.68962 | 3561 ft | 207 kts | 179° |
| 2026-04-24 03:43 | 8.67858 | 167.69252 | 4584 ft | 205 kts | 140° |
| 2026-04-24 03:43 | 8.66805 | 167.70197 | 5736 ft | 206 kts | 127° |
| 2026-04-24 03:44 | 8.66100 | 167.71437 | 6924 ft | 211 kts | 108° |
| 2026-04-24 03:44 | 8.65579 | 167.72809 | 8150 ft | 216 kts | 108° |
| 2026-04-24 03:44 | 8.65036 | 167.74226 | 9160 ft | 231 kts | 109° |
| 2026-04-24 03:44 | 8.64409 | 167.75858 | 9740 ft | 265 kts | 109° |
| 2026-04-24 03:45 | 8.63721 | 167.77628 | 10482 ft | 290 kts | 109° |
| 2026-04-24 03:45 | 8.62934 | 167.79649 | 10828 ft | 327 kts | 109° |
| 2026-04-24 03:45 | 8.62066 | 167.81863 | 11564 ft | 346 kts | 109° |
| 2026-04-24 03:45 | 8.61164 | 167.84161 | 12474 ft | 355 kts | 109° |
| 2026-04-24 03:46 | 8.60248 | 167.86494 | 13355 ft | 362 kts | 109° |
| 2026-04-24 03:46 | 8.59306 | 167.88895 | 14206 ft | 370 kts | 109° |
| 2026-04-24 03:46 | 8.58362 | 167.91296 | 15042 ft | 376 kts | 110° |
| 2026-04-24 03:46 | 8.57389 | 167.93774 | 15875 ft | 381 kts | 110° |
| 2026-04-24 03:47 | 8.56400 | 167.96304 | 16659 ft | 387 kts | 110° |
| 2026-04-24 03:47 | 8.55410 | 167.98834 | 17404 ft | 393 kts | 110° |
| 2026-04-24 03:47 | 8.54388 | 168.01443 | 18145 ft | 399 kts | 110° |
| 2026-04-24 03:47 | 8.53354 | 168.04080 | 18857 ft | 405 kts | 110° |
| 2026-04-24 03:48 | 8.52312 | 168.06737 | 19534 ft | 411 kts | 110° |
| 2026-04-24 03:48 | 8.51237 | 168.09467 | 20211 ft | 416 kts | 111° |
| 2026-04-24 03:48 | 8.50164 | 168.12215 | 20842 ft | 421 kts | 110° |
| 2026-04-24 03:48 | 8.49098 | 168.14961 | 21465 ft | 426 kts | 110° |
| 2026-04-24 03:49 | 8.47999 | 168.17783 | 22080 ft | 431 kts | 110° |
| 2026-04-24 03:49 | 8.46916 | 168.20604 | 22676 ft | 435 kts | 108° |
| 2026-04-24 03:49 | 8.46175 | 168.23578 | 23287 ft | 438 kts | 99° |
| 2026-04-24 03:49 | 8.45300 | 168.26567 | 23813 ft | 445 kts | 111° |
| 2026-04-24 03:50 | 8.44457 | 168.29575 | 24216 ft | 450 kts | 99° |
| 2026-04-24 03:50 | 8.43521 | 168.32616 | 24719 ft | 454 kts | 112° |
| 2026-04-24 03:50 | 8.42208 | 168.35524 | 25394 ft | 449 kts | 116° |
| 2026-04-24 03:50 | 8.40595 | 168.38184 | 25964 ft | 445 kts | 119° |
| 2026-04-24 03:51 | 8.39139 | 168.40950 | 26508 ft | 443 kts | 115° |
| 2026-04-24 03:51 | 8.37852 | 168.43828 | 26738 ft | 447 kts | 110° |
| 2026-04-24 03:51 | 8.36693 | 168.46722 | 26887 ft | 444 kts | 111° |
| 2026-04-24 03:51 | 8.35484 | 168.49631 | 26865 ft | 450 kts | 111° |
| 2026-04-24 03:52 | 8.34294 | 168.52655 | 26869 ft | 461 kts | 110° |
| 2026-04-24 03:52 | 8.33104 | 168.55684 | 26869 ft | 469 kts | 110° |
| 2026-04-24 03:52 | 8.31889 | 168.58775 | 26866 ft | 472 kts | 110° |
| 2026-04-24 03:52 | 8.30697 | 168.61804 | 26867 ft | 471 kts | 110° |
| 2026-04-24 03:53 | 8.29450 | 168.64920 | 26867 ft | 470 kts | 112° |
| 2026-04-24 03:53 | 8.28099 | 168.67914 | 26868 ft | 470 kts | 114° |
| 2026-04-24 03:53 | 8.26714 | 168.70920 | 26869 ft | 470 kts | 114° |
| 2026-04-24 03:53 | 8.25334 | 168.73921 | 26870 ft | 470 kts | 114° |
| 2026-04-24 03:54 | 8.23954 | 168.76920 | 26871 ft | 469 kts | 114° |
| 2026-04-24 03:54 | 8.22562 | 168.79939 | 26872 ft | 470 kts | 114° |
| 2026-04-24 03:54 | 8.21191 | 168.82913 | 26870 ft | 470 kts | 114° |
| 2026-04-24 03:54 | 8.19730 | 168.85883 | 26938 ft | 469 kts | 117° |
| 2026-04-24 03:55 | 8.18228 | 168.88827 | 27017 ft | 470 kts | 114° |
| 2026-04-24 03:55 | 8.17013 | 168.91921 | 26814 ft | 474 kts | 110° |
| 2026-04-24 03:55 | 8.15766 | 168.94994 | 26842 ft | 469 kts | 113° |
| 2026-04-24 03:55 | 8.14391 | 168.97963 | 26851 ft | 468 kts | 114° |
| 2026-04-24 03:56 | 8.13014 | 169.00944 | 26853 ft | 468 kts | 114° |
| 2026-04-24 03:56 | 8.11628 | 169.03957 | 26850 ft | 469 kts | 114° |
| 2026-04-24 03:56 | 8.10275 | 169.06985 | 26903 ft | 468 kts | 113° |
| 2026-04-24 03:56 | 8.08921 | 169.09940 | 26899 ft | 470 kts | 114° |
| 2026-04-24 03:57 | 8.07520 | 169.12970 | 26868 ft | 471 kts | 113° |
| 2026-04-24 03:57 | 8.06258 | 169.16034 | 26724 ft | 472 kts | 114° |
| 2026-04-24 03:57 | 8.04885 | 169.19047 | 26515 ft | 469 kts | 114° |
| 2026-04-24 03:57 | 8.03583 | 169.22034 | 26862 ft | 455 kts | 111° |
| 2026-04-24 03:58 | 8.02393 | 169.24989 | 27367 ft | 457 kts | 112° |
| 2026-04-24 03:58 | 8.01091 | 169.27960 | 27351 ft | 473 kts | 113° |
| 2026-04-24 03:58 | 7.99727 | 169.31068 | 27181 ft | 491 kts | 112° |
| 2026-04-24 03:58 | 7.98360 | 169.34286 | 27731 ft | 488 kts | 112° |
| 2026-04-24 03:59 | 7.97092 | 169.37395 | 28727 ft | 477 kts | 111° |
| 2026-04-24 03:59 | 7.95830 | 169.40512 | 29186 ft | 480 kts | 113° |
| 2026-04-24 03:59 | 7.94513 | 169.43654 | 29026 ft | 495 kts | 112° |
| 2026-04-24 03:59 | 7.93191 | 169.46954 | 28719 ft | 510 kts | 111° |
| 2026-04-24 04:00 | 7.91734 | 169.50185 | 28994 ft | 487 kts | 112° |
| 2026-04-24 04:00 | 7.90485 | 169.53273 | 30197 ft | 464 kts | 112° |
| 2026-04-24 04:00 | 7.89042 | 169.56177 | 30697 ft | 464 kts | 118° |
| 2026-04-24 04:00 | 7.87464 | 169.59070 | 31071 ft | 467 kts | 118° |
| 2026-04-24 04:01 | 7.85917 | 169.61966 | 31520 ft | 467 kts | 117° |
| 2026-04-24 04:01 | 7.84391 | 169.64885 | 32144 ft | 463 kts | 117° |
| 2026-04-24 04:01 | 7.82914 | 169.67754 | 32666 ft | 461 kts | 117° |
| 2026-04-24 04:01 | 7.81439 | 169.70657 | 32867 ft | 465 kts | 117° |
| 2026-04-24 04:02 | 7.79977 | 169.73570 | 32870 ft | 469 kts | 116° |
| 2026-04-24 04:02 | 7.77039 | 169.79512 | 32868 ft | 466 kts | 116° |
| 2026-04-24 04:03 | 7.74188 | 169.85359 | 32868 ft | 466 kts | 116° |
| 2026-04-24 04:03 | 7.71327 | 169.91293 | 32867 ft | 470 kts | 116° |
| 2026-04-24 04:04 | 7.68444 | 169.97321 | 32867 ft | 472 kts | 116° |
| 2026-04-24 04:04 | 7.65596 | 170.03311 | 32868 ft | 472 kts | 115° |
| 2026-04-24 04:05 | 7.62775 | 170.09271 | 32396 ft | 453 kts | 115° |
| 2026-04-24 04:05 | 7.61416 | 170.12148 | 31355 ft | 451 kts | 114° |
| 2026-04-24 04:05 | 7.60074 | 170.14992 | 29969 ft | 457 kts | 114° |
| 2026-04-24 04:05 | 7.58706 | 170.17894 | 28667 ft | 459 kts | 113° |
| 2026-04-24 04:06 | 7.57325 | 170.20827 | 27522 ft | 455 kts | 113° |
| 2026-04-24 04:06 | 7.55994 | 170.23651 | 26598 ft | 448 kts | 113° |
| 2026-04-24 04:06 | 7.54659 | 170.26480 | 25698 ft | 439 kts | 113° |
| 2026-04-24 04:06 | 7.53350 | 170.29256 | 24796 ft | 432 kts | 113° |
| 2026-04-24 04:07 | 7.52072 | 170.31979 | 24024 ft | 427 kts | 113° |
| 2026-04-24 04:07 | 7.50824 | 170.34639 | 23150 ft | 420 kts | 113° |
| 2026-04-24 04:07 | 7.49578 | 170.37295 | 22235 ft | 413 kts | 113° |
| 2026-04-24 04:07 | 7.48352 | 170.39908 | 21348 ft | 407 kts | 113° |
| 2026-04-24 04:08 | 7.47158 | 170.42454 | 20467 ft | 400 kts | 113° |
| 2026-04-24 04:08 | 7.45978 | 170.44971 | 19598 ft | 394 kts | 113° |
| 2026-04-24 04:08 | 7.44812 | 170.47456 | 18720 ft | 387 kts | 113° |
| 2026-04-24 04:08 | 7.43678 | 170.49873 | 17832 ft | 382 kts | 112° |
| 2026-04-24 04:09 | 7.42549 | 170.52281 | 16966 ft | 375 kts | 112° |
| 2026-04-24 04:09 | 7.41453 | 170.54614 | 16423 ft | 360 kts | 112° |
| 2026-04-24 04:09 | 7.40387 | 170.56889 | 15271 ft | 365 kts | 112° |
| 2026-04-24 04:09 | 7.39303 | 170.59203 | 14177 ft | 363 kts | 112° |
| 2026-04-24 04:10 | 7.38238 | 170.61472 | 13402 ft | 353 kts | 112° |
| 2026-04-24 04:10 | 7.37203 | 170.63680 | 12829 ft | 344 kts | 112° |
| 2026-04-24 04:10 | 7.36191 | 170.65826 | 12348 ft | 326 kts | 112° |
| 2026-04-24 04:11 | 7.34289 | 170.69864 | 11526 ft | 316 kts | 112° |
| 2026-04-24 04:11 | 7.33338 | 170.71895 | 11053 ft | 315 kts | 112° |
| 2026-04-24 04:11 | 7.32417 | 170.73859 | 10643 ft | 308 kts | 112° |
| 2026-04-24 04:11 | 7.31503 | 170.75809 | 10230 ft | 305 kts | 112° |
| 2026-04-24 04:12 | 7.30594 | 170.77748 | 9821 ft | 302 kts | 112° |
| 2026-04-24 04:12 | 7.29698 | 170.79658 | 9427 ft | 300 kts | 112° |
| 2026-04-24 04:12 | 7.28809 | 170.81551 | 8997 ft | 294 kts | 112° |
| 2026-04-24 04:12 | 7.27692 | 170.83247 | 8654 ft | 282 kts | 129° |
| 2026-04-24 04:13 | 7.26350 | 170.84634 | 8287 ft | 270 kts | 130° |
| 2026-04-24 04:13 | 7.25054 | 170.85974 | 7928 ft | 258 kts | 129° |
| 2026-04-24 04:13 | 7.23830 | 170.87242 | 7600 ft | 248 kts | 130° |
| 2026-04-24 04:13 | 7.22636 | 170.88478 | 7278 ft | 244 kts | 129° |
| 2026-04-24 04:14 | 7.21439 | 170.89723 | 6831 ft | 245 kts | 130° |
| 2026-04-24 04:14 | 7.20248 | 170.90956 | 6555 ft | 240 kts | 129° |
| 2026-04-24 04:14 | 7.19082 | 170.92166 | 6222 ft | 240 kts | 129° |
| 2026-04-24 04:14 | 7.17913 | 170.93376 | 5910 ft | 238 kts | 130° |
| 2026-04-24 04:15 | 7.16753 | 170.94575 | 5594 ft | 238 kts | 130° |
| 2026-04-24 04:15 | 7.15592 | 170.95775 | 5276 ft | 236 kts | 130° |
| 2026-04-24 04:15 | 7.14453 | 170.96951 | 4967 ft | 235 kts | 129° |
| 2026-04-24 04:15 | 7.13303 | 170.98143 | 4648 ft | 233 kts | 130° |
| 2026-04-24 04:16 | 7.12182 | 170.99306 | 4344 ft | 232 kts | 130° |
| 2026-04-24 04:16 | 7.11035 | 171.00496 | 4075 ft | 232 kts | 130° |
| 2026-04-24 04:16 | 7.09903 | 171.01671 | 3721 ft | 232 kts | 130° |
| 2026-04-24 04:16 | 7.08776 | 171.02837 | 3417 ft | 228 kts | 130° |
| 2026-04-24 04:17 | 7.07684 | 171.03978 | 3112 ft | 224 kts | 129° |
| 2026-04-24 04:17 | 7.06633 | 171.05121 | 2820 ft | 220 kts | 128° |
| 2026-04-24 04:17 | 7.05595 | 171.06251 | 2528 ft | 217 kts | 128° |
| 2026-04-24 04:17 | 7.04570 | 171.07367 | 2222 ft | 211 kts | 129° |
| 2026-04-24 04:18 | 7.03601 | 171.08417 | 1972 ft | 193 kts | 128° |
| 2026-04-24 04:18 | 7.02764 | 171.09401 | 1723 ft | 176 kts | 117° |
| 2026-04-24 04:18 | 7.02488 | 171.10516 | 1597 ft | 157 kts | 87° |
| 2026-04-24 04:18 | 7.02677 | 171.11615 | 1598 ft | 158 kts | 77° |
| 2026-04-24 04:19 | 7.02946 | 171.12700 | 1594 ft | 159 kts | 77° |
| 2026-04-24 04:19 | 7.03212 | 171.13782 | 1595 ft | 158 kts | 77° |
| 2026-04-24 04:19 | 7.03477 | 171.14865 | 1600 ft | 159 kts | 77° |
| 2026-04-24 04:19 | 7.03747 | 171.15951 | 1603 ft | 159 kts | 76° |
| 2026-04-24 04:20 | 7.04003 | 171.16986 | 1588 ft | 141 kts | 77° |
| 2026-04-24 04:20 | 7.04238 | 171.17917 | 1544 ft | 135 kts | 73° |
| 2026-04-24 04:20 | 7.04517 | 171.18785 | 1396 ft | 125 kts | 75° |
| 2026-04-24 04:20 | 7.04682 | 171.19600 | 1245 ft | 119 kts | 79° |
| 2026-04-24 04:21 | 7.04851 | 171.20418 | 1014 ft | 116 kts | 79° |
| 2026-04-24 04:21 | 7.05050 | 171.21204 | 825 ft | 114 kts | 74° |
| 2026-04-24 04:21 | 7.05258 | 171.21983 | 742 ft | 115 kts | 78° |
| 2026-04-24 04:21 | 7.05428 | 171.22775 | 624 ft | 115 kts | 79° |
| 2026-04-24 04:22 | 7.05602 | 171.23576 | 440 ft | 117 kts | 77° |
| 2026-04-24 04:22 | 7.05812 | 171.24361 | 313 ft | 111 kts | 78° |
| 2026-04-24 04:22 | 7.06004 | 171.25139 | 193 ft | 114 kts | 78° |
| 2026-04-24 04:22 | 7.06189 | 171.25899 | 72 ft | 106 kts | 77° |
| 2026-04-24 04:23 | 7.06346 | 171.26546 | 22 ft | 76 kts | 78° |
| 2026-04-24 04:23 | 7.06442 | 171.26945 | 15 ft | 34 kts | 77° |
| 2026-04-24 04:23 | 7.06459 | 171.26973 | 15 ft | 1 kts | 348° |
| 2026-04-24 04:23 | 7.06470 | 171.26953 | 15 ft | 5 kts | 245° |
| 2026-04-24 04:24 | 7.06431 | 171.26914 | 15 ft | 10 kts | 222° |
| 2026-04-24 04:24 | 7.06366 | 171.26852 | 13 ft | 15 kts | 257° |
| 2026-04-24 04:24 | 7.06383 | 171.26778 | 17 ft | 9 kts | 279° |
| 2026-04-24 04:24 | 7.06370 | 171.26689 | 19 ft | 14 kts | 256° |
| 2026-04-24 04:25 | 7.06342 | 171.26578 | 21 ft | 18 kts | 255° |
| 2026-04-24 04:25 | 7.06308 | 171.26443 | 23 ft | 21 kts | 255° |
| 2026-04-24 04:25 | 7.06266 | 171.26283 | 22 ft | 15 kts | 257° |
| 2026-04-24 04:25 | 7.06254 | 171.26218 | 21 ft | 16 kts | 268° |
| 2026-04-24 04:26 | 7.06252 | 171.26150 | 20 ft | 8 kts | 268° |
| 2026-04-24 04:26 | 7.06245 | 171.26135 | 20 ft | 2 kts | 214° |
| 2026-04-24 04:26 | 7.06217 | 171.26143 | 20 ft | 5 kts | 137° |
| 2026-04-24 04:26 | 7.06218 | 171.26160 | 20 ft | 3 kts | 36° |
| 2026-04-24 04:27 | 7.06266 | 171.26225 | 21 ft | 17 kts | 74° |
| 2026-04-24 04:27 | 7.06358 | 171.26646 | 20 ft | 115 kts | 68° |
| 2026-04-24 04:27 | 7.06631 | 171.27657 | 397 ft | 173 kts | 73° |
| 2026-04-24 04:27 | 7.07056 | 171.28893 | 1073 ft | 201 kts | 70° |
| 2026-04-24 04:28 | 7.07616 | 171.30276 | 1876 ft | 221 kts | 67° |
| 2026-04-24 04:28 | 7.08654 | 171.31416 | 2729 ft | 240 kts | 24° |
| 2026-04-24 04:28 | 7.10340 | 171.31206 | 3380 ft | 265 kts | 331° |
| 2026-04-24 04:28 | 7.11723 | 171.29889 | 3545 ft | 271 kts | 315° |
| 2026-04-24 04:29 | 7.12852 | 171.28435 | 3650 ft | 263 kts | 300° |
| 2026-04-24 04:29 | 7.13186 | 171.26630 | 3689 ft | 260 kts | 266° |
| 2026-04-24 04:29 | 7.12821 | 171.24863 | 3712 ft | 254 kts | 254° |
| 2026-04-24 04:29 | 7.12297 | 171.23178 | 3615 ft | 252 kts | 249° |
| 2026-04-24 04:30 | 7.11653 | 171.21541 | 3451 ft | 245 kts | 240° |
| 2026-04-24 04:30 | 7.10568 | 171.20395 | 3433 ft | 217 kts | 200° |
| 2026-04-24 04:30 | 7.09145 | 171.20171 | 3317 ft | 205 kts | 171° |
| 2026-04-24 04:30 | 7.07676 | 171.20352 | 2925 ft | 210 kts | 164° |
| 2026-04-24 04:31 | 7.06296 | 171.20676 | 2500 ft | 198 kts | 158° |
| 2026-04-24 04:31 | 7.05143 | 171.21262 | 2207 ft | 174 kts | 123° |
| 2026-04-24 04:31 | 7.05000 | 171.22281 | 1954 ft | 138 kts | 65° |
| 2026-04-24 04:31 | 7.05450 | 171.23041 | 1611 ft | 123 kts | 60° |
| 2026-04-24 04:32 | 7.05771 | 171.23782 | 1253 ft | 117 kts | 72° |
| 2026-04-24 04:32 | 7.05947 | 171.24634 | 851 ft | 127 kts | 76° |
| 2026-04-24 04:32 | 7.06133 | 171.25485 | 365 ft | 119 kts | 73° |
| 2026-04-24 04:32 | 7.06288 | 171.26270 | 26 ft | 109 kts | 73° |
| 2026-04-24 04:33 | 7.06440 | 171.26854 | 16 ft | 56 kts | 79° |
| 2026-04-24 04:33 | 7.06491 | 171.27107 | 16 ft | 1 kts | 100° |
| 2026-04-24 04:33 | 7.06489 | 171.27125 | 16 ft | 2 kts | 80° |
| 2026-04-24 04:33 | 7.06500 | 171.27139 | 16 ft | 4 kts | 58° |
| 2026-04-24 04:34 | 7.06511 | 171.27267 | 18 ft | 39 kts | 78° |
| 2026-04-24 04:34 | 7.06622 | 171.27718 | 24 ft | 92 kts | 75° |
| 2026-04-24 04:34 | 7.06725 | 171.28496 | 93 ft | 123 kts | 94° |
| 2026-04-24 04:34 | 7.06751 | 171.29439 | 59 ft | 153 kts | 59° |
| 2026-04-24 04:35 | 7.07288 | 171.30502 | 700 ft | 183 kts | 63° |
| 2026-04-24 04:35 | 7.08031 | 171.31618 | 1565 ft | 207 kts | 54° |
| 2026-04-24 04:35 | 7.08463 | 171.32811 | 2290 ft | 172 kts | 78° |